地図

経路データ

SID SEASON NUMBER BASIN SUBBASIN NAME ISO_TIME NATURE LAT LON WMO_WIND WMO_PRES WMO_AGENCY TRACK_TYPE DIST2LAND LANDFALL IFLAG USA_AGENCY USA_ATCF_ID USA_LAT USA_LON USA_RECORD USA_STATUS USA_WIND USA_PRES USA_SSHS USA_R34_NE USA_R34_SE USA_R34_SW USA_R34_NW USA_R50_NE USA_R50_SE USA_R50_SW USA_R50_NW USA_R64_NE USA_R64_SE USA_R64_SW USA_R64_NW USA_POCI USA_ROCI USA_RMW USA_EYE TOKYO_LAT TOKYO_LON TOKYO_GRADE TOKYO_WIND TOKYO_PRES TOKYO_R50_DIR TOKYO_R50_LONG TOKYO_R50_SHORT TOKYO_R30_DIR TOKYO_R30_LONG TOKYO_R30_SHORT TOKYO_LAND CMA_LAT CMA_LON CMA_CAT CMA_WIND CMA_PRES HKO_LAT HKO_LON HKO_CAT HKO_WIND HKO_PRES NEWDELHI_LAT NEWDELHI_LON NEWDELHI_GRADE NEWDELHI_WIND NEWDELHI_PRES NEWDELHI_CI NEWDELHI_DP NEWDELHI_POCI REUNION_LAT REUNION_LON REUNION_TYPE REUNION_WIND REUNION_PRES REUNION_TNUM REUNION_CI REUNION_RMW REUNION_R34_NE REUNION_R34_SE REUNION_R34_SW REUNION_R34_NW REUNION_R50_NE REUNION_R50_SE REUNION_R50_SW REUNION_R50_NW REUNION_R64_NE REUNION_R64_SE REUNION_R64_SW REUNION_R64_NW BOM_LAT BOM_LON BOM_TYPE BOM_WIND BOM_PRES BOM_TNUM BOM_CI BOM_RMW BOM_R34_NE BOM_R34_SE BOM_R34_SW BOM_R34_NW BOM_R50_NE BOM_R50_SE BOM_R50_SW BOM_R50_NW BOM_R64_NE BOM_R64_SE BOM_R64_SW BOM_R64_NW BOM_ROCI BOM_POCI BOM_EYE BOM_POS_METHOD BOM_PRES_METHOD NADI_LAT NADI_LON NADI_CAT NADI_WIND NADI_PRES WELLINGTON_LAT WELLINGTON_LON WELLINGTON_WIND WELLINGTON_PRES DS824_LAT DS824_LON DS824_STAGE DS824_WIND DS824_PRES TD9636_LAT TD9636_LON TD9636_STAGE TD9636_WIND TD9636_PRES TD9635_LAT TD9635_LON TD9635_WIND TD9635_PRES TD9635_ROCI NEUMANN_LAT NEUMANN_LON NEUMANN_CLASS NEUMANN_WIND NEUMANN_PRES MLC_LAT MLC_LON MLC_CLASS MLC_WIND MLC_PRES USA_GUST BOM_GUST BOM_GUST_PER REUNION_GUST REUNION_GUST_PER USA_SEAHGT USA_SEARAD_NE USA_SEARAD_SE USA_SEARAD_SW USA_SEARAD_NW STORM_SPEED STORM_DIR
1951033S14100 1951 8 SI WA NOT_NAMED 1951-02-02 01:00:00 NR -14.0000 100.000 1002 bom main 986 986 ______O___O___ -1 -14.0000 100.000 1002 -14.0000 100.000 7 8 251
1951033S14100 1951 8 SI WA NOT_NAMED 1951-02-02 03:00:00 NR -14.0842 99.7507 main 1008 1015 ______P___P___ -1 -14.0847 99.7511 -14.0837 99.7502 7 8 251
1951033S14100 1951 8 SI WA NOT_NAMED 1951-02-02 06:00:00 TS -14.2067 99.3842 main 1043 1043 O_____P__OP___ jtwc_sh SH131951 -14.2000 99.4000 -1 -14.2114 99.3773 -14.2000 99.4000 TC -14.2088 99.3753 7 8 250
1951033S14100 1951 8 SI WA NOT_NAMED 1951-02-02 09:00:00 TS -14.3472 98.9957 main 1079 1087 P_____P__PP___ SH131951 -14.3627 98.9877 -1 -14.3375 99.0031 -14.3627 98.9877 TC -14.3337 99.0002 7 8 250
1951033S14100 1951 8 SI WA NOT_NAMED 1951-02-02 12:00:00 TS -14.4815 98.6126 main 1124 1124 O_____P__OP___ jtwc_sh SH131951 -14.5000 98.6000 -1 -14.4631 98.6284 -14.5000 98.6000 TC -14.4584 98.6251 7 8 250
1951033S14100 1951 8 SI WA NOT_NAMED 1951-02-02 13:00:00 TS -14.5228 98.4888 main 1131 1131 P_____P__PO___ SH131951 -14.5364 98.4802 -1 -14.5048 98.5034 -14.5364 98.4802 TC -14.5000 98.5000 7 7 252
1951033S14100 1951 8 SI WA NOT_NAMED 1951-02-02 15:00:00 TS -14.5942 98.2506 main 1153 1161 P_____P__PP___ SH131951 -14.5999 98.2499 -1 -14.5880 98.2532 -14.5999 98.2499 TC -14.5832 98.2499 7 7 253
1951033S14100 1951 8 SI WA NOT_NAMED 1951-02-02 18:00:00 TS -14.7041 97.8905 main 1191 1191 O_____P__OP___ jtwc_sh SH131951 -14.7000 97.9000 -1 -14.7123 97.8777 -14.7000 97.9000 TC -14.7081 97.8748 7 8 251
1951033S14100 1951 8 SI WA NOT_NAMED 1951-02-02 21:00:00 TS -14.8438 97.5004 main 1228 1236 P_____P__PP___ SH131951 -14.8500 97.5001 -1 -14.8361 97.5017 -14.8500 97.5001 TC -14.8331 97.4998 7 8 250
1951033S14100 1951 8 SI WA NOT_NAMED 1951-02-03 00:00:00 TS -14.9843 97.1096 main 1274 1274 O_____P__OP___ jtwc_sh SH131951 -15.0000 97.1000 -1 -14.9591 97.1255 -15.0000 97.1000 TC -14.9583 97.1249 7 8 250
1951033S14100 1951 8 SI WA NOT_NAMED 1951-02-03 01:00:00 TS -15.0237 96.9870 998 bom main 1282 1282 P_____O__PO___ SH131951 -15.0364 96.9802 -1 -15.0000 97.0000 998 -15.0364 96.9802 TC -15.0000 97.0000 7 7 252
1951033S14100 1951 8 SI WA NOT_NAMED 1951-02-03 03:00:00 TS -15.0979 96.7471 main 1313 1313 P_____P__PP___ SH131951 -15.0999 96.7499 -1 -15.0848 96.7512 -15.0999 96.7499 TC -15.0832 96.7499 7 7 252
1951033S14100 1951 8 SI WA NOT_NAMED 1951-02-03 06:00:00 TS -15.2122 96.3842 main 1344 1344 O_____P__OP___ jtwc_sh SH131951 -15.2000 96.4000 -1 -15.2116 96.3775 -15.2000 96.4000 TC -15.2081 96.3748 7 8 251
1951033S14100 1951 8 SI WA NOT_NAMED 1951-02-03 09:00:00 TS -15.3501 95.9970 main 1390 1390 P_____P__PP___ SH131951 -15.3500 96.0001 -1 -15.3378 96.0033 -15.3500 96.0001 TC -15.3331 95.9998 7 8 250
1951033S14100 1951 8 SI WA NOT_NAMED 1951-02-03 12:00:00 TS -15.4878 95.6095 main 1430 1430 O_____P__OP___ jtwc_sh SH131951 -15.5000 95.6000 -1 -15.4633 95.6286 -15.5000 95.6000 TC -15.4583 95.6249 7 8 250
1951033S14100 1951 8 SI WA NOT_NAMED 1951-02-03 13:00:00 TS -15.5268 95.4871 main 1438 1438 P_____P__PO___ SH131951 -15.5364 95.4802 -1 -15.5051 95.5036 -15.5364 95.4802 TC -15.5000 95.5000 7 7 252
1951033S14100 1951 8 SI WA NOT_NAMED 1951-02-03 15:00:00 TS -15.6002 95.2469 main 1469 1469 P_____P__PP___ SH131951 -15.5999 95.2499 -1 -15.5883 95.2535 -15.5999 95.2499 TC -15.5835 95.2501 7 7 252
1951033S14100 1951 8 SI WA NOT_NAMED 1951-02-03 18:00:00 TS -15.7124 94.8835 main 1501 1501 O_____P__OP___ jtwc_sh SH131951 -15.7000 94.9000 -1 -15.7126 94.8779 -15.7000 94.9000 TC -15.7088 94.8754 7 8 251
1951033S14100 1951 8 SI WA NOT_NAMED 1951-02-03 21:00:00 TS -15.8422 94.5026 main 1541 1548 P_____P__PP___ SH131951 -15.8377 94.5127 -1 -15.8362 94.5019 -15.8377 94.5127 TC -15.8339 94.5004 7 8 250
1951033S14100 1951 8 SI WA NOT_NAMED 1951-02-04 00:00:00 TS -15.9794 94.1127 main 1588 1588 O_____P__OP___ jtwc_sh SH131951 -16.0000 94.1000 -1 -15.9592 94.1255 -16.0000 94.1000 TC -15.9586 94.1252 7 8 252
1951033S14100 1951 8 SI WA NOT_NAMED 1951-02-04 01:00:00 NR -16.0000 94.0000 994 bom main 1596 ______O___O___ SH131951 -1 -16.0000 94.0000 994 TC -16.0000 94.0000 7 7 259

IBTrACS Databaseについて

本データベースは、米国NOAAが公開する1842年以降の世界の熱帯低気圧のベストトラックデータアーカイブInternational Best Track Archive for Climate Stewardship (IBTrACS)を、ウェブで閲覧しやすい形式に変換したものです。

最終更新日:2021-12-06